Data for 07/06/2008

Time Sea-Level Adjusted Pressure Absolute Pressure Temperature Relative Humidity Dew Point   
(mb) (inHg) (mb) (inHg) (C) (F) (%) (C) (F)
00:05 1018 30.06 847 25.01 17.4 63.4 63 10.4 50.8
00:10 1018 30.06 847 25.01 17.5 63.5 64 10.7 51.2
00:15 1018 30.06 847 25.01 17.6 63.6 65 10.9 51.6
00:20 1018 30.06 847 25.01 17.5 63.5 66 11.1 51.9
00:25 1018 30.06 847 25.01 17.4 63.3 67 11.3 52.4
00:30 1018 30.06 847 25.01 17.3 63.1 68 11.3 52.3
00:35 1018 30.06 847 25.01 17.2 62.9 67 11.2 52.1
00:40 1018 30.06 847 25.01 17.3 63.1 66 10.9 51.6
00:45 1018 30.06 847 25.01 17 62.6 67 11 51.8
00:50 1018 30.06 847 25.01 16.8 62.2 67 10.8 51.4
00:55 1018 30.06 847 25.01 16.7 62.1 68 10.9 51.7
01:00 1018 30.06 847 25.01 16.8 62.2 69 11.1 52
01:05 1018 30.06 847 25.01 16.8 62.2 68 10.9 51.7
01:10 1018 30.06 847 25.01 16.6 61.9 68 10.7 51.2
01:15 1018 30.06 847 25.01 16.5 61.7 69 10.9 51.6
01:20 1018 30.06 847 25.01 16.4 61.6 70 10.9 51.6
01:25 1018 30.06 847 25.01 16.2 61.2 70 10.8 51.4
01:30 1018 30.06 847 25.01 16 60.8 70 10.6 51.1
01:35 1018 30.06 847 25.01 15.7 60.3 72 10.7 51.3
01:40 1018 30.06 847 25.01 15.4 59.8 74 10.8 51.5
01:45 1018 30.06 847 25.01 15 59 78 11.3 52.3
01:50 1018 30.06 847 25.01 14.8 58.7 76 10.7 51.3
01:55 1018 30.06 847 25.01 14.6 58.2 77 10.6 51
02:00 1018 30.06 847 25.01 14.4 57.9 77 10.4 50.8
02:05 1018 30.06 847 25.01 14.4 57.9 76 10.2 50.3
02:10 1018 30.06 847 25.01 14.4 57.9 75 10.1 50.2
02:15 1018 30.06 847 25.01 14.6 58.2 73 9.8 49.6
02:20 1018 30.06 847 25.01 14.9 58.8 72 9.9 49.8
02:25 1018 30.06 847 25.01 15.1 59.1 70 9.7 49.5
02:30 1018 30.06 847 25.01 15 59 73 10.3 50.6
02:35 1018 30.06 847 25.01 15 58.9 72 10 50
02:40 1018 30.06 847 25.01 14.8 58.7 72 9.9 49.9
02:45 1018 30.06 847 25.01 15 59.1 70 9.6 49.3
02:50 1018 30.06 847 25.01 15.2 59.3 69 9.6 49.4
02:55 1018 30.06 847 25.01 15.1 59.1 69 9.5 49.1
03:00 1018 30.06 847 25.01 15.4 59.7 69 9.7 49.5
03:05 1018 30.06 847 25.01 15.3 59.5 70 10 49.9
03:10 1018 30.06 847 25.01 15.2 59.4 67 9.3 48.8
03:15 1018 30.06 847 25.01 15.1 59.2 69 9.5 49
03:20 1018 30.06 847 25.01 14.9 58.9 69 9.4 48.9
03:25 1018 30.06 847 25.01 14.8 58.6 68 9.1 48.3
03:30 1018 30.06 847 25.01 14.7 58.5 69 9.2 48.5
03:35 1018 30.06 847 25.01 14.8 58.6 68 8.9 48
03:40 1018 30.06 847 25.01 14.8 58.6 68 9 48.2
03:45 1018 30.06 847 25.01 14.8 58.7 70 9.4 48.9
03:50 1018 30.06 847 25.01 14.7 58.5 70 9.3 48.8
03:55 1018 30.06 847 25.01 14.7 58.5 69 9.2 48.6
04:00 1018 30.06 847 25.01 14.8 58.6 68 9 48.3
04:05 1018 30.06 847 25.01 14.8 58.7 69 9.3 48.7
04:10 1018 30.06 847 25.01 14.8 58.6 69 9.3 48.7
04:15 1018 30.06 847 25.01 14.7 58.5 70 9.3 48.8
04:20 1018 30.06 847 25.01 14.7 58.4 71 9.5 49
04:25 1018 30.06 847 25.01 14.5 58.2 71 9.4 48.8
04:30 1018 30.06 847 25.01 14.5 58.1 71 9.3 48.7
04:35 1018 30.06 847 25.01 14.6 58.2 68 8.8 47.8
04:40 1018 30.06 847 25.01 14.7 58.5 67 8.7 47.6
04:45 1018 30.06 847 25.01 14.8 58.6 70 9.3 48.8
04:50 1018 30.06 847 25.01 14.5 58.1 70 9.1 48.4
04:55 1018 30.06 847 25.01 14.5 58 68 8.8 47.8
05:00 1018 30.06 847 25.01 14.5 58 69 8.9 48
05:05 1018 30.06 848 25.04 14.3 57.7 70 8.9 47.9
05:10 1018 30.06 848 25.04 14.3 57.8 69 8.7 47.7
05:15 1018 30.06 848 25.04 14.4 57.9 67 8.4 47.1
05:20 1018 30.06 848 25.04 14.4 57.9 67 8.5 47.3
05:25 1018 30.06 848 25.04 14.4 57.8 67 8.3 46.9
05:30 1018 30.06 848 25.04 14.5 58 68 8.7 47.6
05:35 1018 30.06 848 25.04 14.5 58 67 8.4 47.1
05:40 1019 30.09 848 25.04 14.5 58 67 8.4 47.2
05:45 1018 30.06 848 25.04 14.2 57.6 67 8.2 46.8
05:50 1018 30.06 848 25.04 14.1 57.3 68 8.4 47.1
05:55 1018 30.06 848 25.04 13.9 57 69 8.4 47.1
06:00 1018 30.06 848 25.04 13.7 56.6 73 9 48.2
06:05 1018 30.06 848 25.04 13.4 56.2 73 8.8 47.9
06:10 1018 30.06 848 25.04 13.4 56.1 73 8.6 47.5
06:15 1019 30.09 848 25.04 13.5 56.2 72 8.6 47.5
06:20 1018 30.06 848 25.04 13.4 56.2 74 8.9 48
06:25 1019 30.09 848 25.04 13.4 56 74 8.9 47.9
06:30 1019 30.09 848 25.04 13.2 55.8 77 9.2 48.6
06:35 1019 30.09 848 25.04 13 55.5 77 9.2 48.6
06:40 1019 30.09 848 25.04 13 55.4 76 8.9 48
06:45 1019 30.09 848 25.04 13.1 55.5 77 9.1 48.3
06:50 1019 30.09 848 25.04 13.1 55.5 77 9.2 48.5
06:55 1019 30.09 848 25.04 13.1 55.5 75 8.8 47.8
07:00 1019 30.09 848 25.04 13.2 55.8 75 9 48.1
07:05 1019 30.09 848 25.04 13.4 56.1 73 8.7 47.7
07:10 1019 30.09 848 25.04 13.5 56.4 72 8.7 47.6
07:15 1019 30.09 848 25.04 13.7 56.7 72 8.8 47.8
07:20 1019 30.09 848 25.04 13.9 57 71 8.8 47.8
07:25 1019 30.09 848 25.04 14 57.2 69 8.5 47.3
07:30 1019 30.09 848 25.04 14.3 57.8 70 8.9 48.1
07:35 1019 30.09 848 25.04 14.4 57.9 70 9 48.3
07:40 1019 30.09 848 25.04 14.4 57.9 70 9.1 48.3
07:45 1019 30.09 848 25.04 14.6 58.3 70 9.2 48.5
07:50 1019 30.09 848 25.04 14.9 58.8 69 9.2 48.6
07:55 1019 30.09 848 25.04 14.9 58.8 68 9.2 48.5
08:00 1019 30.09 848 25.04 15 59.1 67 9 48.2
08:05 1019 30.09 848 25.04 15.3 59.5 67 9.2 48.6
08:10 1019 30.09 848 25.04 15.5 59.9 67 9.4 48.9
08:15 1019 30.09 848 25.04 15.6 60.1 65 9.2 48.5
08:20 1019 30.09 848 25.04 16.1 61 64 9.3 48.7
08:25 1019 30.09 848 25.04 15.9 60.6 65 9.4 48.9
08:30 1019 30.09 848 25.04 16.3 61.3 64 9.5 49.1
08:35 1019 30.09 848 25.04 16.5 61.7 62 9.3 48.7
08:40 1019 30.09 848 25.04 16.6 61.8 62 9.3 48.7
08:45 1019 30.09 848 25.04 16.5 61.7 63 9.6 49.2
08:50 1019 30.09 848 25.04 16.7 62.1 64 9.8 49.7
08:55 1019 30.09 848 25.04 16.8 62.2 57 8.3 47
09:00 1019 30.09 848 25.04 16.6 61.9 57 8.2 46.8
09:05 1019 30.09 848 25.04 17 62.6 53 7.4 45.2
09:10 1019 30.09 848 25.04 17.4 63.3 52 7.6 45.7
09:15 1019 30.09 848 25.04 17.4 63.4 51 7.2 44.9
09:20 1019 30.09 848 25.04 17.6 63.6 51 7.5 45.4
09:25 1019 30.09 848 25.04 18.1 64.5 49 7.2 45
09:30 1019 30.09 848 25.04 18.1 64.5 46 6.3 43.4
09:35 1019 30.09 848 25.04 18.4 65.2 46 6.7 44.1
09:40 1019 30.09 848 25.04 18.4 65.2 48 7.4 45.3
09:45 1019 30.09 848 25.04 18 64.4 47 6.7 44.1
09:50 1019 30.09 848 25.04 18.5 65.2 48 7.5 45.5
09:55 1019 30.09 848 25.04 18.6 65.6 48 7.6 45.7
10:00 1019 30.09 848 25.04 19.2 66.5 46 7.4 45.4
10:05 1019 30.09 848 25.04 19.5 67 44 7 44.7
10:10 1019 30.09 848 25.04 19.3 66.7 45 7.3 45.1
10:15 1019 30.09 848 25.04 19.7 67.4 40 5.8 42.4
10:20 1019 30.09 848 25.04 20.2 68.3 41 6.6 43.8
10:25 1019 30.09 848 25.04 20 68 41 6.3 43.4
10:30 1019 30.09 848 25.04 20.1 68.2 40 6.4 43.5
10:35 1019 30.09 848 25.04 20.6 69.1 38 5.9 42.7
10:40 1019 30.09 848 25.04 20.6 69.1 38 6.1 43
10:45 1019 30.09 848 25.04 20.8 69.4 36 5.2 41.4
10:50 1019 30.09 848 25.04 21 69.8 32 4.1 39.4
10:55 1019 30.09 848 25.04 21.4 70.5 32 4.4 39.9
11:00 1019 30.09 848 25.04 21.4 70.5 34 5.1 41.2
11:05 1019 30.09 848 25.04 21.3 70.4 36 5.8 42.4
11:10 1019 30.09 848 25.04 21.3 70.3 35 5.4 41.7
11:15 1019 30.09 848 25.04 21.4 70.6 34 4.9 40.8
11:20 1019 30.09 848 25.04 21.3 70.4 35 5.4 41.7
11:25 1018 30.06 848 25.04 21.1 70 36 5.5 42
11:30 1018 30.06 848 25.04 20.7 69.2 35 4.6 40.4
11:35 1018 30.06 848 25.04 21.4 70.4 34 5 41.1
11:40 1018 30.06 848 25.04 21.3 70.4 34 5.1 41.2
11:45 1018 30.06 848 25.04 22.1 71.8 32 4.7 40.5
11:50 1018 30.06 848 25.04 22.1 71.8 32 4.8 40.7
11:55 1018 30.06 848 25.04 22.5 72.5 31 4.7 40.4
12:00 1018 30.06 848 25.04 21.7 71.1 33 4.9 40.9
12:05 1018 30.06 848 25.04 21.2 70.2 33 4.3 39.8
12:10 1018 30.06 848 25.04 21.8 71.3 33 5.2 41.3
12:15 1018 30.06 847 25.01 22.2 71.9 32 4.9 40.8
12:20 1018 30.06 847 25.01 22.8 73.1 30 4.6 40.3
12:25 1018 30.06 847 25.01 23 73.4 34 6.4 43.5
12:30 1018 30.06 847 25.01 22.7 72.8 32 5.5 41.9
12:35 1018 30.06 847 25.01 23 73.3 33 6.1 43.1
12:40 1018 30.06 847 25.01 22 71.6 34 5.7 42.3
12:45 1018 30.06 847 25.01 21.6 70.9 35 5.8 42.5
12:50 1018 30.06 847 25.01 22.4 72.3 33 5.4 41.8
12:55 1018 30.06 847 25.01 22.8 73 34 6.2 43.1
13:00 1018 30.06 847 25.01 22.6 72.6 33 5.7 42.2
13:05 1018 30.06 847 25.01 22.8 73 33 5.7 42.2
13:10 1018 30.06 847 25.01 22.8 73.1 34 6.4 43.5
13:15 1018 30.06 847 25.01 22 71.6 34 5.7 42.3
13:20 1018 30.06 847 25.01 23.6 74.5 30 5.3 41.6
13:25 1018 30.06 847 25.01 24.5 76 30 6.2 43.2
13:30 1018 30.06 847 25.01 24.3 75.8 30 5.8 42.4
13:35 1018 30.06 847 25.01 23.9 74.9 29 4.8 40.6
13:40 1018 30.06 847 25.01 24.2 75.6 29 5.5 41.9
13:45 1018 30.06 847 25.01 24.5 76 28 4.9 40.9
13:50 1018 30.06 847 25.01 24.6 76.3 30 5.9 42.6
13:55 1018 30.06 847 25.01 24.8 76.7 28 5.5 42
14:00 1018 30.06 847 25.01 25.1 77.2 28 5.4 41.8
14:05 1018 30.06 847 25.01 25.1 77.2 28 5.8 42.4
14:10 1017 30.03 847 25.01 25.1 77.1 29 6 42.8
14:15 1017 30.03 847 25.01 25.2 77.4 29 6.4 43.5
14:20 1017 30.03 847 25.01 25.1 77.2 28 5.6 42.1
14:25 1017 30.03 847 25.01 24.6 76.3 29 5.8 42.5
14:30 1017 30.03 847 25.01 24.3 75.7 29 5.5 42
14:35 1017 30.03 847 25.01 24 75.2 30 5.8 42.5
14:40 1017 30.03 846 24.98 23.9 75 29 5 41.1
14:45 1017 30.03 846 24.98 24.9 76.9 28 5.5 41.9
14:50 1017 30.03 846 24.98 25.2 77.3 28 5.8 42.5
14:55 1017 30.03 846 24.98 24.9 76.8 29 5.8 42.5
15:00 1017 30.03 846 24.98 24.6 76.3 29 5.7 42.3
15:05 1017 30.03 846 24.98 24.3 75.7 30 5.7 42.3
15:10 1017 30.03 846 24.98 24.1 75.4 29 5.1 41.1
15:15 1017 30.03 846 24.98 25 77.1 28 5.8 42.4
15:20 1017 30.03 846 24.98 25.4 77.7 28 5.8 42.4
15:25 1017 30.03 846 24.98 25 77 29 6.1 42.9
15:30 1017 30.03 846 24.98 24.9 76.8 31 6.9 44.4
15:35 1017 30.03 846 24.98 24.9 76.9 28 5.3 41.6
15:40 1017 30.03 846 24.98 24.7 76.4 28 5.1 41.1
15:45 1017 30.03 846 24.98 24.7 76.4 28 5.1 41.2
15:50 1017 30.03 846 24.98 24 75.2 30 5.7 42.3
15:55 1017 30.03 846 24.98 24.4 75.9 29 5.6 42
16:00 1017 30.03 846 24.98 24.7 76.5 28 5.4 41.8
16:05 1017 30.03 846 24.98 24.4 75.9 29 5.4 41.8
16:10 1017 30.03 846 24.98 24.6 76.2 28 5.3 41.6
16:15 1017 30.03 846 24.98 24.8 76.6 29 5.9 42.6
16:20 1017 30.03 846 24.98 24.6 76.3 29 5.5 41.9
16:25 1017 30.03 846 24.98 24.4 76 28 5.2 41.4
16:30 1017 30.03 846 24.98 24.3 75.8 29 5.4 41.7
16:35 1017 30.03 846 24.98 24.6 76.3 28 5.1 41.3
16:40 1016 30 846 24.98 25 76.9 27 5.2 41.3
16:45 1016 30 846 24.98 24.9 76.8 28 5.2 41.3
16:50 1016 30 846 24.98 25.4 77.8 27 5.2 41.3
16:55 1016 30 846 24.98 25.3 77.5 26 4.7 40.5
17:00 1016 30 845 24.95 25.7 78.2 26 5.1 41.1
17:05 1016 30 845 24.95 26.1 78.9 26 5.1 41.2
17:10 1016 30 845 24.95 26.1 79 25 5 41
17:15 1016 30 845 24.95 25.9 78.6 27 5.6 42
17:20 1016 30 845 24.95 25.6 78 25 4.5 40.1
17:25 1016 30 845 24.95 25.9 78.7 25 4.7 40.4
17:30 1016 30 845 24.95 25.9 78.7 25 4.4 40
17:35 1016 30 845 24.95 26 78.7 25 4.5 40.1
17:40 1016 30 845 24.95 26.1 78.9 24 4.4 40
17:45 1016 30 845 24.95 26.1 79 25 4.6 40.3
17:50 1016 30 845 24.95 25.9 78.7 25 4.5 40.2
17:55 1016 30 845 24.95 26 78.7 25 4.8 40.7
18:00 1016 30 845 24.95 25.7 78.3 25 4.3 39.7
18:05 1016 30 845 24.95 26.2 79.2 25 4.8 40.6
18:10 1016 30 845 24.95 25.9 78.6 25 4.8 40.7
18:15 1016 30 845 24.95 25.6 78.1 26 4.9 40.8
18:20 1016 30 845 24.95 25.3 77.6 27 5.3 41.6
18:25 1016 30 845 24.95 24.9 76.9 27 4.8 40.7
18:30 1016 30 845 24.95 24.8 76.6 27 4.6 40.2
18:35 1016 30 845 24.95 25 76.9 27 4.7 40.5
18:40 1015 29.97 845 24.95 25.4 77.6 26 4.7 40.5
18:45 1015 29.97 845 24.95 25.7 78.2 25 4.4 40
18:50 1015 29.97 845 24.95 26.2 79.1 24 4.2 39.5
18:55 1015 29.97 845 24.95 26.6 79.9 23 4.2 39.6
19:00 1015 29.97 844 24.92 26.7 80 24 4.9 40.8
19:05 1015 29.97 844 24.92 26.4 79.5 24 4.8 40.6
19:10 1015 29.97 844 24.92 25.8 78.5 25 4.4 39.8
19:15 1015 29.97 844 24.92 26.3 79.4 24 4.7 40.4
19:20 1015 29.97 844 24.92 26.5 79.6 24 4.8 40.6
19:25 1015 29.97 844 24.92 26.4 79.4 24 4.4 39.9
19:30 1015 29.97 844 24.92 26.1 78.9 25 5 40.9
19:35 1015 29.97 844 24.92 25.5 77.9 26 4.8 40.6
19:40 1015 29.97 844 24.92 25.4 77.6 26 4.7 40.5
19:45 1015 29.97 844 24.92 25.1 77.2 27 4.8 40.6
19:50 1015 29.97 844 24.92 24.9 76.8 25 4 39.2
19:55 1015 29.97 844 24.92 24.7 76.5 27 4.8 40.7
20:00 1015 29.97 844 24.92 24.6 76.3 27 4.6 40.2
20:05 1015 29.97 844 24.92 24.7 76.4 26 4.3 39.8
20:10 1015 29.97 844 24.92 24.7 76.4 27 4.8 40.7
20:15 1015 29.97 844 24.92 24.5 76.1 28 4.8 40.6
20:20 1015 29.97 844 24.92 24.4 75.9 28 4.8 40.7
20:25 1015 29.97 845 24.95 24.3 75.7 28 4.8 40.6
20:30 1015 29.97 845 24.95 24.2 75.5 28 4.9 40.9
20:35 1015 29.97 845 24.95 24 75.2 30 5.5 41.8
20:40 1015 29.97 845 24.95 23.9 75 30 5.7 42.2
20:45 1015 29.97 845 24.95 23.7 74.7 33 6.6 43.9
20:50 1015 29.97 845 24.95 23.2 73.8 33 6.5 43.6
20:55 1016 30 845 24.95 23 73.4 37 7.6 45.6
21:00 1016 30 845 24.95 22.8 73 37 7.5 45.6
21:05 1016 30 845 24.95 22.2 72 44 9.7 49.5
21:10 1016 30 845 24.95 21.6 71 43 8.7 47.7
21:15 1016 30 845 24.95 21.3 70.3 44 8.6 47.4
21:20 1016 30 845 24.95 21.2 70.1 43 8.4 47.1
21:25 1016 30 845 24.95 20.8 69.4 47 9.3 48.7
21:30 1016 30 845 24.95 20.3 68.5 46 8.4 47
21:35 1016 30 845 24.95 19.8 67.7 47 8.3 47
21:40 1016 30 845 24.95 19.4 66.9 49 8.4 47.1
21:45 1016 30 845 24.95 19.1 66.4 50 8.6 47.5
21:50 1016 30 845 24.95 18.7 65.7 53 9.1 48.4
21:55 1016 30 846 24.98 18.5 65.2 52 8.6 47.6
22:00 1016 30 846 24.98 18.2 64.7 56 9.4 49
22:05 1017 30.03 846 24.98 17.7 63.8 56 8.9 47.9
22:10 1017 30.03 846 24.98 17.8 64 55 8.6 47.5
22:15 1017 30.03 846 24.98 17.8 64.1 52 7.9 46.2
22:20 1017 30.03 846 24.98 17.9 64.1 52 7.8 46.1
22:25 1017 30.03 846 24.98 17.6 63.7 52 7.8 46.1
22:30 1017 30.03 846 24.98 17.1 62.7 54 7.8 46
22:35 1017 30.03 846 24.98 17 62.6 53 7.5 45.5
22:40 1017 30.03 846 24.98 17.1 62.8 53 7.6 45.6
22:45 1017 30.03 846 24.98 17.3 63.1 53 7.6 45.7
22:50 1017 30.03 846 24.98 17.6 63.7 48 6.6 43.8
22:55 1017 30.03 846 24.98 18.1 64.6 49 7.3 45.1
23:00 1017 30.03 846 24.98 17.9 64.2 50 7.5 45.6
23:05 1017 30.03 846 24.98 17.7 63.8 51 7.4 45.4
23:10 1017 30.03 846 24.98 17.6 63.6 51 7.4 45.2
23:15 1017 30.03 846 24.98 17.6 63.7 51 7.4 45.3
23:20 1017 30.03 846 24.98 17.4 63.3 52 7.6 45.7
23:25 1017 30.03 846 24.98 16.9 62.5 55 7.8 46.1
23:30 1017 30.03 846 24.98 16.6 61.9 55 7.7 45.8
23:35 1017 30.03 846 24.98 16.3 61.3 57 7.8 46
23:40 1017 30.03 846 24.98 16 60.7 57 7.6 45.7
23:45 1017 30.03 847 25.01 15.8 60.4 59 7.8 46.1
23:50 1017 30.03 847 25.01 15.4 59.7 60 7.7 45.8
23:55 1017 30.03 847 25.01 15.3 59.5 60 7.6 45.6
24:00 1017 30.03 847 25.01 15.2 59.4 59 7.4 45.4